Time;durP1;ratioP1;P1;durP2;ratioP2;P2;SDS_P1;SDS_P2;PMS_P1;PMS_P2;Temp;Humidity;BMP_temperature;BMP_pressure;BME280_temperature;BME280_humidity;BME280_pressure;Samples;Min_cycle;Max_cycle;Signal;HPM_P1;HPM_P2
2023/10/07 00:00:32;;;;;;;;;8.33;7.00;;;;;17.17;51.57;102103.94;4938963;28;45493;-70
2023/10/07 00:02:59;;;;;;;;;7.25;5.75;;;;;17.18;51.35;102105.63;4939246;28;45521;-70
2023/10/07 00:05:38;;;;;;;;;12.33;9.33;;;;;16.82;51.27;102045.72;4938661;28;46927;-70
2023/10/07 00:08:04;;;;;;;;;7.67;7.33;;;;;17.10;51.49;102102.03;4938446;28;45489;-69
2023/10/07 00:10:31;;;;;;;;;8.00;6.00;;;;;17.06;51.34;102089.91;4939051;28;45494;-71
2023/10/07 00:12:57;;;;;;;;;12.67;8.00;;;;;17.18;51.67;102119.06;4940205;28;45443;-69
2023/10/07 00:15:28;;;;;;;;;7.00;7.00;;;;;16.99;51.99;102090.50;4957796;28;46473;-71
2023/10/07 00:17:56;;;;;;;;;6.00;5.00;;;;;17.07;51.74;102105.88;4954289;28;45553;-70
2023/10/07 00:20:23;;;;;;;;;9.67;7.33;;;;;17.15;51.75;102124.75;4937426;28;45510;-70
2023/10/07 00:22:54;;;;;;;;;8.00;6.67;;;;;17.14;51.90;102112.31;4938865;28;45307;-71
2023/10/07 00:25:20;;;;;;;;;8.33;8.00;;;;;16.92;51.61;102078.69;4938235;28;45890;-69
2023/10/07 00:27:48;;;;;;;;;7.00;6.67;;;;;16.99;51.65;102109.31;4938417;28;45481;-70
2023/10/07 00:30:22;;;;;;;;;7.00;6.33;;;;;16.96;51.90;102079.22;4957855;28;45347;-68
2023/10/07 00:32:48;;;;;;;;;10.33;7.00;;;;;17.06;52.02;102089.91;4958264;28;45563;-70
2023/10/07 00:35:16;;;;;;;;;7.67;7.67;;;;;17.14;52.05;102093.50;4957383;28;45900;-69
2023/10/07 00:37:44;;;;;;;;;13.00;10.67;;;;;16.96;52.15;102079.22;4957890;28;45445;-70
2023/10/07 00:40:40;;;;;;;;;7.00;7.00;;;;;16.94;52.12;102075.84;4957706;28;45434;-71
2023/10/07 00:42:57;;;;;;;;;9.33;8.67;;;;;16.71;52.21;102038.72;4956699;28;45473;-70
2023/10/07 00:45:24;;;;;;;;;8.67;7.67;;;;;16.73;52.41;102035.88;4957467;28;46494;-69
2023/10/07 00:47:52;;;;;;;;;6.67;6.67;;;;;17.11;52.54;102109.94;4954049;28;45442;-68
2023/10/07 00:50:20;;;;;;;;;7.00;6.00;;;;;16.92;52.71;102073.31;4938422;28;45298;-69
2023/10/07 00:55:28;;;;;;;;;9.33;7.00;;;;;17.11;52.47;102109.94;4938004;28;46321;-70
2023/10/07 00:58:04;;;;;;;;;6.67;5.33;;;;;17.03;52.53;102091.06;4938812;28;45209;-69
2023/10/07 01:03:16;;;;;;;;;7.33;7.00;;;;;17.10;53.09;102102.88;4957801;28;45376;-71
2023/10/07 01:08:35;;;;;;;;;7.33;6.33;;;;;17.11;53.02;102103.72;4957141;28;45353;-71
2023/10/07 01:13:48;;;;;;;;;8.33;7.00;;;;;16.94;52.78;102068.66;4951911;28;45586;-71
2023/10/07 01:16:20;;;;;;;;;6.33;6.33;;;;;17.09;52.77;102085.06;4938180;28;45670;-70
2023/10/07 01:18:45;;;;;;;;;11.50;9.00;;;;;17.08;53.25;102082.56;4938162;28;45276;-70
2023/10/07 01:21:30;;;;;;;;;9.67;7.00;;;;;17.03;52.88;102074.97;4938019;28;45271;-69
2023/10/07 01:23:56;;;;;;;;;6.00;6.00;;;;;16.93;53.17;102055.38;4938034;28;45509;-70
2023/10/07 01:26:23;;;;;;;;;6.00;6.00;;;;;16.99;53.45;102068.19;4946018;28;46903;-70
2023/10/07 01:28:56;;;;;;;;;9.67;7.00;;;;;16.93;53.62;102060.75;4950393;28;47117;-71
2023/10/07 01:31:23;;;;;;;;;7.00;5.00;;;;;17.04;53.68;102068.59;4939817;28;45501;-70
2023/10/07 01:33:48;;;;;;;;;13.00;8.33;;;;;16.98;53.93;102061.13;4941408;28;45263;-69
2023/10/07 01:36:23;;;;;;;;;9.33;9.33;;;;;16.99;53.64;102062.81;4940823;28;45775;-69
2023/10/07 01:38:51;;;;;;;;;8.33;7.33;;;;;16.93;53.86;102048.16;4940687;28;45321;-71
2023/10/07 01:41:21;;;;;;;;;7.33;7.33;;;;;16.76;53.65;102013.22;4941169;28;45232;-70
2023/10/07 01:43:56;;;;;;;;;14.33;12.67;;;;;16.91;53.76;102039.41;4941395;28;45680;-71
2023/10/07 01:46:27;;;;;;;;;12.33;10.67;;;;;17.02;54.23;102043.72;4940811;28;46146;-70
2023/10/07 01:48:57;;;;;;;;;9.00;7.00;;;;;16.97;53.80;102038.78;4940587;28;45457;-70
2023/10/07 01:51:23;;;;;;;;;9.33;8.33;;;;;16.92;54.13;102029.50;4941017;28;45489;-69
2023/10/07 01:53:49;;;;;;;;;9.67;7.67;;;;;16.88;54.20;102028.13;4941054;28;45498;-71
2023/10/07 01:56:15;;;;;;;;;11.00;9.67;;;;;16.94;53.99;102043.63;4940656;28;46137;-69
2023/10/07 01:58:40;;;;;;;;;9.33;8.00;;;;;17.01;54.35;102047.38;4944243;28;45533;-70
2023/10/07 02:01:06;;;;;;;;;11.00;11.00;;;;;16.86;54.36;102019.38;4960141;28;45390;-70
2023/10/07 02:03:32;;;;;;;;;10.00;9.00;;;;;16.98;54.48;102047.69;4960376;28;45928;-70
2023/10/07 02:05:58;;;;;;;;;8.00;8.00;;;;;16.89;54.75;102036.03;4942471;28;46714;-71
2023/10/07 02:08:25;;;;;;;;;11.00;9.33;;;;;16.94;54.74;102055.22;4959535;28;45422;-70
2023/10/07 02:10:52;;;;;;;;;6.00;5.67;;;;;16.94;54.81;102065.97;4960017;28;45481;-70
2023/10/07 02:13:19;;;;;;;;;7.33;7.00;;;;;16.94;54.81;102063.28;4959368;28;45521;-71
2023/10/07 02:15:46;;;;;;;;;12.67;10.00;;;;;16.73;54.72;102030.50;4959664;28;45876;-69
2023/10/07 02:18:17;;;;;;;;;8.67;5.67;;;;;16.94;54.90;102070.50;4952974;28;45413;-70
2023/10/07 02:21:06;;;;;;;;;10.33;7.00;;;;;16.88;55.02;102063.88;4940579;28;45284;-71
2023/10/07 02:23:40;;;;;;;;;13.67;11.00;;;;;16.80;54.96;102062.94;4940306;28;45386;-70
2023/10/07 02:26:07;;;;;;;;;11.33;9.00;;;;;16.89;55.26;102092.44;4940145;28;45999;-69
2023/10/07 02:28:33;;;;;;;;;10.33;9.33;;;;;16.87;55.40;102088.22;4957202;28;45769;-71
2023/10/07 02:31:03;;;;;;;;;9.67;9.67;;;;;16.79;55.30;102070.16;4947547;28;45418;-70
2023/10/07 02:33:29;;;;;;;;;11.67;9.67;;;;;16.69;55.66;102062.19;4940559;28;45344;-69
2023/10/07 02:35:58;;;;;;;;;11.00;9.33;;;;;16.48;55.48;102032.06;4939853;28;46276;-69
2023/10/07 02:38:35;;;;;;;;;11.67;10.00;;;;;16.83;55.39;102097.59;4939833;28;45414;-70
2023/10/07 02:41:07;;;;;;;;;7.00;7.00;;;;;16.77;55.54;102074.00;4940146;28;45505;-71
2023/10/07 02:43:35;;;;;;;;;10.67;8.00;;;;;16.79;55.90;102080.06;4944537;28;45324;-69
2023/10/07 02:46:05;;;;;;;;;10.00;8.33;;;;;16.73;55.72;102071.63;4957840;28;47754;-69
2023/10/07 02:48:34;;;;;;;;;11.33;7.67;;;;;16.78;55.73;102081.91;4958518;28;45328;-71
2023/10/07 02:51:06;;;;;;;;;12.33;9.33;;;;;16.72;55.83;102080.69;4941913;28;45511;-70
2023/10/07 02:53:35;;;;;;;;;16.67;11.00;;;;;16.77;55.71;102079.38;4959454;28;45390;-69
2023/10/07 02:56:03;;;;;;;;;10.00;7.33;;;;;16.77;55.81;102074.00;4941541;28;48349;-69
2023/10/07 02:58:36;;;;;;;;;12.33;11.00;;;;;16.67;55.93;102052.59;4959223;28;45649;-69
2023/10/07 03:01:25;;;;;;;;;9.00;7.00;;;;;16.63;56.11;102057.41;4958458;28;45363;-70
2023/10/07 03:03:50;;;;;;;;;11.67;9.67;;;;;16.70;55.98;102069.25;4959003;28;45319;-69
2023/10/07 03:06:18;;;;;;;;;9.33;7.00;;;;;16.70;56.26;102061.19;4941362;28;47464;-71
2023/10/07 03:08:57;;;;;;;;;7.67;7.67;;;;;16.55;55.99;102038.50;4958887;28;45522;-68
2023/10/07 03:11:23;;;;;;;;;9.00;8.33;;;;;16.72;56.33;102069.94;4959111;28;45605;-71
2023/10/07 03:13:50;;;;;;;;;9.67;8.33;;;;;16.72;56.23;102067.25;4958794;28;45222;-70
2023/10/07 03:24:13;;;;;;;;;10.00;9.67;;;;;16.65;55.99;102074.19;4939437;28;45323;-69
2023/10/07 03:26:41;;;;;;;;;12.00;10.33;;;;;16.53;56.26;102058.44;4939588;28;45667;-69
2023/10/07 03:29:09;;;;;;;;;16.00;13.33;;;;;16.65;56.47;102087.63;4939433;28;45482;-71
2023/10/07 03:31:47;;;;;;;;;10.00;10.00;;;;;16.63;56.66;102086.94;4939378;28;45521;-72
2023/10/07 03:34:13;;;;;;;;;8.67;6.33;;;;;16.62;56.47;102087.94;4939742;28;45347;-69
2023/10/07 03:36:45;;;;;;;;;17.33;14.00;;;;;16.59;56.50;102082.84;4939037;28;45651;-69
2023/10/07 03:41:47;;;;;;;;;10.33;10.00;;;;;16.17;56.45;102017.25;4957093;28;45505;-69
2023/10/07 03:44:19;;;;;;;;;8.67;8.67;;;;;16.60;56.51;102094.41;4958600;28;45497;-69
2023/10/07 03:46:49;;;;;;;;;13.00;8.67;;;;;16.30;56.53;102044.59;4950594;28;45754;-69
2023/10/07 03:49:16;;;;;;;;;10.67;7.33;;;;;16.45;56.60;102069.94;4939090;28;45490;-69
2023/10/07 03:51:48;;;;;;;;;10.00;9.33;;;;;16.55;56.41;102089.50;4939052;28;45359;-69
2023/10/07 03:54:24;;;;;;;;;7.33;7.33;;;;;16.36;56.40;102063.63;4938907;28;45284;-69
2023/10/07 03:56:51;;;;;;;;;10.00;9.33;;;;;16.26;56.85;102035.16;4938791;28;45771;-69
2023/10/07 03:59:17;;;;;;;;;12.67;9.00;;;;;16.54;56.41;102087.81;4938901;28;45378;-72
2023/10/07 04:01:45;;;;;;;;;12.00;9.00;;;;;16.52;57.11;102086.28;4939119;28;45255;-72
2023/10/07 04:04:11;;;;;;;;;6.00;6.00;;;;;16.47;56.99;102083.22;4939116;28;45333;-70
2023/10/07 04:06:38;;;;;;;;;12.67;10.33;;;;;16.49;56.69;102089.28;4949709;28;45720;-70
2023/10/07 04:09:08;;;;;;;;;12.33;9.33;;;;;16.17;56.46;102038.72;4957813;28;45327;-70
2023/10/07 04:11:38;;;;;;;;;10.00;9.67;;;;;16.47;56.84;102089.44;4958268;28;45271;-71
2023/10/07 04:14:18;;;;;;;;;12.33;10.33;;;;;16.43;57.00;102088.03;4957603;28;45509;-69
2023/10/07 04:16:47;;;;;;;;;9.00;7.67;;;;;16.45;57.30;102090.56;4949862;28;45847;-70
2023/10/07 04:21:50;;;;;;;;;10.33;8.00;;;;;16.41;57.32;102095.38;4938929;28;45550;-69
2023/10/07 04:24:16;;;;;;;;;11.67;9.00;;;;;16.10;57.22;102049.22;4938669;28;45296;-71
2023/10/07 04:26:51;;;;;;;;;8.67;8.67;;;;;16.39;57.30;102102.72;4938568;28;47000;-70
2023/10/07 04:29:17;;;;;;;;;9.00;9.00;;;;;16.38;57.27;102095.69;4938661;28;45377;-69
2023/10/07 04:31:51;;;;;;;;;9.33;8.00;;;;;16.38;57.06;102091.16;4938614;28;45312;-70
2023/10/07 04:34:20;;;;;;;;;11.00;9.67;;;;;16.38;57.28;102084.94;4938830;28;45450;-68
2023/10/07 04:37:38;;;;;;;;;9.33;8.67;;;;;16.25;57.18;102065.69;4938149;28;46062;-71
2023/10/07 04:42:35;;;;;;;;;11.33;9.33;;;;;15.95;57.55;102018.50;4910773;28;45691;-70
2023/10/07 04:48:10;;;;;;;;;8.33;8.33;;;;;16.31;57.38;102075.81;4917276;28;45669;-70
2023/10/07 04:50:37;;;;;;;;;15.00;11.67;;;;;16.25;57.83;102073.72;4954278;28;45432;-70
2023/10/07 04:53:04;;;;;;;;;10.67;9.00;;;;;16.27;57.52;102079.78;4957513;28;45494;-80
2023/10/07 04:55:30;;;;;;;;;9.33;8.67;;;;;16.18;57.75;102072.59;4957764;28;45389;-71
2023/10/07 05:02:59;;;;;;;;;11.67;10.00;;;;;15.97;57.86;102052.22;4958112;28;45563;-69
2023/10/07 05:05:33;;;;;;;;;10.67;9.33;;;;;16.09;57.70;102080.56;4958368;28;45363;-69
2023/10/07 05:08:10;;;;;;;;;12.00;10.33;;;;;16.16;57.71;102088.00;4960163;28;45896;-71
2023/10/07 05:10:39;;;;;;;;;9.67;9.67;;;;;16.19;57.63;102093.06;4923770;28;45432;-69
2023/10/07 05:13:08;;;;;;;;;12.00;9.67;;;;;16.18;57.92;102088.72;4941493;28;45522;-70
2023/10/07 05:15:38;;;;;;;;;14.67;12.33;;;;;15.89;57.91;102052.13;4941522;28;45537;-71
2023/10/07 05:18:04;;;;;;;;;11.33;11.33;;;;;16.05;57.80;102079.19;4957849;28;45636;-70
2023/10/07 05:20:32;;;;;;;;;10.67;10.67;;;;;16.02;57.84;102079.47;4960692;28;45464;-70
2023/10/07 05:23:00;;;;;;;;;11.67;9.67;;;;;16.01;58.28;102084.97;4960486;28;45482;-69
2023/10/07 05:25:26;;;;;;;;;10.33;9.33;;;;;16.01;58.15;102091.16;4960493;28;45469;-69
2023/10/07 05:27:51;;;;;;;;;8.67;8.67;;;;;16.05;58.31;102097.94;4960511;28;45607;-69
2023/10/07 05:30:18;;;;;;;;;10.00;8.67;;;;;16.02;58.19;102103.63;4959944;28;45540;-70
2023/10/07 05:32:45;;;;;;;;;11.67;11.67;;;;;16.00;58.50;102097.53;4960390;28;45189;-69
2023/10/07 05:35:11;;;;;;;;;13.67;11.33;;;;;15.85;58.26;102072.19;4960443;28;45489;-70
2023/10/07 05:37:36;;;;;;;;;12.67;12.00;;;;;15.93;58.26;102091.06;4945758;28;48445;-71
2023/10/07 05:40:03;;;;;;;;;12.00;9.67;;;;;15.88;58.28;102085.31;4941712;28;45496;-71
2023/10/07 05:42:28;;;;;;;;;12.33;10.67;;;;;15.96;58.46;102088.09;4960696;28;45492;-70
2023/10/07 05:44:54;;;;;;;;;9.33;9.00;;;;;15.98;58.43;102095.97;4960485;28;45399;-69
2023/10/07 05:47:19;;;;;;;;;8.33;7.00;;;;;16.00;58.31;102094.00;4948042;28;45390;-70
2023/10/07 05:49:45;;;;;;;;;11.67;11.33;;;;;15.92;58.53;102080.47;4953457;28;45366;-69
2023/10/07 05:52:10;;;;;;;;;9.33;6.00;;;;;15.87;58.73;102075.56;4960489;28;45241;-71
2023/10/07 05:54:36;;;;;;;;;14.33;10.67;;;;;15.97;58.82;102091.63;4960321;28;45321;-69
2023/10/07 05:57:06;;;;;;;;;11.33;9.67;;;;;15.89;58.70;102092.34;4959199;28;45699;-70
2023/10/07 05:59:34;;;;;;;;;12.00;11.33;;;;;15.86;59.09;102081.91;4959074;28;45517;-72
2023/10/07 06:02:05;;;;;;;;;13.33;12.33;;;;;15.91;58.99;102101.09;4959849;28;45359;-70
2023/10/07 06:04:31;;;;;;;;;14.00;13.00;;;;;15.92;58.95;102099.25;4960277;28;45521;-71
2023/10/07 06:06:57;;;;;;;;;12.67;11.00;;;;;15.91;58.72;102103.78;4959780;28;45837;-70
2023/10/07 06:09:22;;;;;;;;;9.33;9.33;;;;;15.84;58.76;102080.38;4956319;28;45527;-69
2023/10/07 06:11:48;;;;;;;;;12.33;12.33;;;;;15.91;59.06;102101.09;4959984;28;45315;-68
2023/10/07 06:14:18;;;;;;;;;12.67;12.67;;;;;15.89;58.49;102088.81;4960472;28;45375;-70
2023/10/07 06:16:44;;;;;;;;;13.00;11.67;;;;;15.93;58.68;102090.22;4949277;28;46456;-69
2023/10/07 06:19:11;;;;;;;;;12.00;9.33;;;;;15.85;58.83;102080.22;4928267;28;45447;-69
2023/10/07 06:21:40;;;;;;;;;15.00;11.33;;;;;15.95;58.77;102093.59;4940422;28;45425;-69
2023/10/07 06:24:06;;;;;;;;;9.00;8.67;;;;;15.93;58.61;102090.22;4923079;28;45364;-69
2023/10/07 06:26:31;;;;;;;;;11.33;9.67;;;;;15.93;58.58;102104.47;4940013;28;45601;-68
2023/10/07 06:29:05;;;;;;;;;13.67;13.67;;;;;15.99;58.74;102105.72;4950076;28;45509;-70
2023/10/07 06:31:31;;;;;;;;;13.67;12.67;;;;;15.58;58.79;102030.03;4948584;28;45476;-69
2023/10/07 06:34:00;;;;;;;;;12.67;11.00;;;;;16.08;58.44;102108.38;4944564;28;45462;-70
2023/10/07 06:36:27;;;;;;;;;11.33;10.67;;;;;16.08;58.51;102097.66;4939673;28;47020;-70
2023/10/07 06:38:53;;;;;;;;;10.33;10.33;;;;;16.19;58.26;102106.50;4939684;28;45449;-71
2023/10/07 06:41:19;;;;;;;;;13.00;12.00;;;;;16.28;57.97;102111.00;4940077;28;45434;-69
2023/10/07 06:43:50;;;;;;;;;16.33;13.67;;;;;16.27;58.26;102109.31;4940165;28;45312;-69
2023/10/07 06:46:20;;;;;;;;;15.00;13.67;;;;;16.30;58.13;102115.22;4921722;28;47955;-70
2023/10/07 06:48:48;;;;;;;;;24.00;20.67;;;;;15.99;58.20;102066.31;4939983;28;45367;-69
2023/10/07 06:51:14;;;;;;;;;27.67;26.00;;;;;16.36;57.96;102116.44;4939968;28;45274;-69
2023/10/07 06:53:42;;;;;;;;;17.33;15.33;;;;;16.13;57.96;102073.91;4939982;28;45303;-69
2023/10/07 06:56:20;;;;;;;;;20.33;15.33;;;;;16.24;57.84;102082.78;4950333;28;45633;-76
2023/10/07 06:58:53;;;;;;;;;19.33;13.67;;;;;16.09;58.05;102042.16;4939884;28;45418;-70
2023/10/07 07:04:11;;;;;;;;;21.33;19.67;;;;;16.71;57.35;102123.81;4939514;28;45455;-70
2023/10/07 07:06:44;;;;;;;;;20.33;20.33;;;;;16.76;57.33;102107.22;4922372;28;47908;-69
2023/10/07 07:12:03;;;;;;;;;22.67;22.00;;;;;16.94;56.89;102102.72;4939752;28;45345;-70
2023/10/07 07:14:33;;;;;;;;;24.00;21.00;;;;;17.15;56.46;102105.09;4939755;28;45245;-70
2023/10/07 07:17:28;;;;;;;;;20.33;20.33;;;;;17.48;56.30;102108.94;4934643;28;48422;-70
2023/10/07 07:22:33;;;;;;;;;20.33;20.33;;;;;18.20;54.30;102113.97;4956745;28;45498;-69
2023/10/07 07:25:03;;;;;;;;;19.67;19.67;;;;;18.53;53.29;102125.72;4956701;28;45275;-71
2023/10/07 07:27:33;;;;;;;;;20.33;19.67;;;;;18.53;52.90;102062.94;4939796;28;46634;-70
2023/10/07 07:30:02;;;;;;;;;19.33;17.33;;;;;19.17;52.27;102123.41;4940503;28;45441;-69
2023/10/07 07:32:37;;;;;;;;;23.67;20.67;;;;;19.45;51.46;102126.63;4940155;28;45256;-71
2023/10/07 07:35:03;;;;;;;;;16.67;13.67;;;;;19.62;51.68;102112.16;4951186;28;45788;-69
2023/10/07 07:37:32;;;;;;;;;20.00;18.67;;;;;19.88;50.56;102111.94;4953713;28;46803;-70
2023/10/07 07:40:42;;;;;;;;;16.33;14.67;;;;;20.23;50.36;102132.28;4953877;28;45404;-70
2023/10/07 07:42:55;;;;;;;;;17.00;16.00;;;;;20.52;49.39;102139.78;4944150;28;45505;-70
2023/10/07 07:45:26;;;;;;;;;15.00;14.33;;;;;20.72;48.99;102137.50;4954210;28;45470;-70
2023/10/07 07:47:54;;;;;;;;;18.67;13.33;;;;;20.91;48.16;102134.34;4958220;28;46205;-69
2023/10/07 07:50:20;;;;;;;;;20.67;15.33;;;;;21.09;48.18;102144.06;4946928;28;45283;-70
2023/10/07 07:52:49;;;;;;;;;18.00;15.00;;;;;21.15;47.84;102121.69;4940191;28;45546;-70
2023/10/07 07:55:17;;;;;;;;;18.00;16.00;;;;;21.52;47.05;102145.28;4957995;28;45457;-70
2023/10/07 07:57:46;;;;;;;;;14.00;14.00;;;;;21.72;46.63;102153.75;4957928;28;46759;-70
2023/10/07 08:00:20;;;;;;;;;18.67;15.67;;;;;21.96;46.51;102158.06;4939957;28;45608;-70
2023/10/07 08:02:48;;;;;;;;;16.33;16.33;;;;;22.19;45.43;102164.28;4946614;28;45329;-69
2023/10/07 08:05:16;;;;;;;;;16.67;15.33;;;;;22.46;44.62;102160.09;4955416;28;45321;-70
2023/10/07 08:07:42;;;;;;;;;17.67;13.33;;;;;22.60;44.65;102150.25;4957858;28;46482;-70
2023/10/07 08:10:10;;;;;;;;;17.67;14.33;;;;;22.89;43.90;102165.69;4957263;28;45180;-70
2023/10/07 08:12:37;;;;;;;;;12.33;12.00;;;;;23.06;43.42;102167.13;4956666;28;45489;-69
2023/10/07 08:15:26;;;;;;;;;11.67;10.33;;;;;23.20;43.22;102166.22;4955439;28;45446;-70
2023/10/07 08:17:52;;;;;;;;;12.33;12.00;;;;;23.38;43.21;102166.63;4946508;28;46630;-69
2023/10/07 08:20:27;;;;;;;;;12.00;12.00;;;;;23.66;42.79;102190.31;4953371;28;45341;-71
2023/10/07 08:22:53;;;;;;;;;14.25;11.50;;;;;23.70;42.51;102152.75;4951631;28;45204;-70
2023/10/07 08:25:37;;;;;;;;;16.67;12.33;;;;;23.92;42.50;102176.94;4955709;28;45412;-70
2023/10/07 08:28:18;;;;;;;;;13.67;11.00;;;;;24.14;41.11;102185.03;4950139;28;46502;-70
2023/10/07 08:30:46;;;;;;;;;15.00;13.67;;;;;24.21;41.44;102177.75;4948227;28;46899;-70
2023/10/07 08:33:15;;;;;;;;;17.00;13.67;;;;;24.44;40.92;102178.38;4959605;28;45457;-71
2023/10/07 08:35:44;;;;;;;;;15.67;14.00;;;;;24.62;40.69;102179.69;4940118;28;45576;-69
2023/10/07 08:38:29;;;;;;;;;15.25;11.00;;;;;24.92;40.70;102185.69;4974880;28;48327;-71
2023/10/07 08:41:07;;;;;;;;;14.67;14.67;;;;;25.18;40.20;102180.34;4978071;28;45363;-70
2023/10/07 08:43:46;;;;;;;;;12.67;11.67;;;;;25.48;39.52;102186.28;4980194;28;45460;-70
2023/10/07 08:46:19;;;;;;;;;13.33;12.00;;;;;25.42;39.34;102154.41;4959840;28;45325;-68
2023/10/07 08:49:05;;;;;;;;;12.33;11.00;;;;;25.60;38.93;102170.97;4960518;28;47369;-69
2023/10/07 08:51:39;;;;;;;;;11.00;8.00;;;;;25.45;39.41;102192.16;4960939;28;45299;-69
2023/10/07 08:54:10;;;;;;;;;15.33;14.33;;;;;25.36;39.29;102196.94;4960785;28;45196;-69
2023/10/07 08:56:37;;;;;;;;;12.67;11.00;;;;;25.12;39.42;102160.25;4954528;28;45345;-69
2023/10/07 08:59:12;;;;;;;;;12.33;11.67;;;;;25.34;39.60;102190.03;4944164;28;45278;-69
2023/10/07 09:01:40;;;;;;;;;10.67;10.00;;;;;25.40;39.26;102205.53;4958635;28;45555;-68
2023/10/07 09:04:07;;;;;;;;;8.00;8.00;;;;;25.15;39.14;102175.31;4960632;28;45334;-69
2023/10/07 09:06:37;;;;;;;;;11.50;9.00;;;;;25.30;39.68;102199.66;4960628;28;45377;-69
2023/10/07 09:09:06;;;;;;;;;17.67;16.00;;;;;25.24;39.64;102171.38;4959797;28;47459;-69
2023/10/07 09:11:39;;;;;;;;;11.33;10.33;;;;;25.43;39.40;102194.25;4960580;28;45520;-68
2023/10/07 09:14:17;;;;;;;;;10.67;9.33;;;;;25.53;39.36;102199.25;4944364;28;45519;-69
2023/10/07 09:16:43;;;;;;;;;11.33;11.33;;;;;25.66;39.31;102202.84;4955466;28;45553;-69
2023/10/07 09:19:12;;;;;;;;;13.00;11.00;;;;;25.87;39.19;102190.94;4941520;28;45754;-69
2023/10/07 09:21:38;;;;;;;;;10.00;10.00;;;;;26.24;38.31;102183.97;4951559;28;45414;-69
2023/10/07 09:24:13;;;;;;;;;15.00;11.00;;;;;26.55;37.48;102188.75;4960034;28;45359;-67
2023/10/07 09:26:49;;;;;;;;;17.33;16.67;;;;;26.76;36.87;102195.78;4941701;28;45233;-69
2023/10/07 09:29:15;;;;;;;;;13.33;13.33;;;;;26.97;36.71;102184.56;4940445;28;47750;-69
2023/10/07 09:31:45;;;;;;;;;11.25;11.25;;;;;27.30;36.23;102191.78;4940765;28;45245;-68
2023/10/07 09:34:24;;;;;;;;;9.67;9.67;;;;;27.34;35.96;102176.63;4940719;28;45269;-68
2023/10/07 09:36:53;;;;;;;;;12.33;11.33;;;;;27.48;36.08;102182.81;4941247;28;45598;-70
2023/10/07 09:39:34;;;;;;;;;10.00;10.00;;;;;27.43;36.63;102178.03;4963259;28;46744;-70
2023/10/07 09:42:04;;;;;;;;;6.75;6.00;;;;;27.42;36.62;102194.63;4959100;28;45559;-69
2023/10/07 09:44:37;;;;;;;;;9.25;8.50;;;;;27.28;36.40;102193.88;4948632;28;45556;-70
2023/10/07 09:47:05;;;;;;;;;6.50;6.50;;;;;27.19;37.21;102196.03;4940724;28;45614;-70
2023/10/07 09:49:36;;;;;;;;;8.75;7.50;;;;;26.76;37.40;102152.13;4959616;28;47435;-69
2023/10/07 09:52:16;;;;;;;;;10.33;8.67;;;;;26.88;37.55;102195.97;4955841;28;45397;-70
2023/10/07 09:55:06;;;;;;;;;6.25;6.25;;;;;25.75;37.80;102087.19;4940364;28;45466;-69
2023/10/07 09:57:49;;;;;;;;;10.00;10.00;;;;;26.12;38.62;102201.19;4940669;28;45684;-68
2023/10/07 10:03:12;;;;;;;;;6.00;6.00;;;;;25.56;39.59;102207.84;4959698;28;45393;-69
2023/10/07 10:05:56;;;;;;;;;7.75;6.00;;;;;25.30;39.62;102221.44;4959903;28;45394;-69
2023/10/07 10:08:59;;;;;;;;;6.75;5.00;;;;;24.99;40.65;102217.34;4959564;28;45314;-69
2023/10/07 10:11:31;;;;;;;;;9.00;8.00;;;;;24.65;41.14;102203.78;4940437;28;46531;-70
2023/10/07 10:16:46;;;;;;;;;11.00;7.50;;;;;24.32;41.59;102209.88;4940534;28;45462;-69
2023/10/07 10:19:44;;;;;;;;;11.25;10.75;;;;;24.12;42.29;102211.56;4940160;28;45565;-67
2023/10/07 10:22:22;;;;;;;;;5.75;5.75;;;;;23.92;42.96;102201.38;4939643;28;46824;-70
2023/10/07 10:24:48;;;;;;;;;9.25;6.75;;;;;23.83;42.95;102205.31;4939369;28;45248;-69
2023/10/07 10:27:17;;;;;;;;;8.75;8.75;;;;;23.71;42.97;102203.28;4952986;28;45388;-68
2023/10/07 10:30:03;;;;;;;;;9.50;7.75;;;;;23.60;43.34;102207.34;4959422;28;45872;-68
2023/10/07 10:32:29;;;;;;;;;13.33;11.33;;;;;23.50;43.64;102196.81;4954523;28;46769;-69
2023/10/07 10:35:10;;;;;;;;;8.00;7.00;;;;;23.36;43.98;102195.81;4958459;28;45429;-68
2023/10/07 10:37:37;;;;;;;;;6.25;6.25;;;;;23.32;44.22;102180.97;4922994;28;45672;-69
2023/10/07 10:40:14;;;;;;;;;7.75;7.25;;;;;23.28;44.23;102193.25;4952600;28;45449;-70
2023/10/07 10:42:44;;;;;;;;;6.50;5.75;;;;;23.29;44.34;102204.94;4957051;28;45722;-69
2023/10/07 10:45:26;;;;;;;;;7.25;5.00;;;;;22.84;44.63;102132.88;4956395;28;45260;-74
2023/10/07 10:47:53;;;;;;;;;8.33;8.33;;;;;23.16;44.61;102192.06;4959031;28;45525;-69
2023/10/07 10:50:23;;;;;;;;;6.75;5.50;;;;;23.16;44.69;102189.34;4947029;28;45206;-69
2023/10/07 10:52:54;;;;;;;;;9.25;7.00;;;;;22.90;44.54;102157.34;4957095;28;46710;-69
2023/10/07 10:55:23;;;;;;;;;7.25;7.00;;;;;23.07;44.61;102193.22;4940417;28;45909;-70
2023/10/07 10:57:52;;;;;;;;;7.33;7.33;;;;;23.05;45.39;102195.28;4952676;28;45485;-68
2023/10/07 11:00:23;;;;;;;;;5.00;4.00;;;;;22.96;45.25;102182.84;4952664;28;45454;-68
2023/10/07 11:02:50;;;;;;;;;7.33;5.33;;;;;22.99;44.90;102193.31;4923143;28;47674;-73
2023/10/07 11:05:16;;;;;;;;;9.50;8.50;;;;;22.94;45.17;102187.63;4954792;28;45593;-69
2023/10/07 11:07:46;;;;;;;;;5.00;4.00;;;;;22.87;45.32;102179.44;4954148;28;45477;-70
2023/10/07 11:10:12;;;;;;;;;5.75;3.50;;;;;22.89;44.10;102185.50;4956649;28;45261;-69
2023/10/07 11:12:37;;;;;;;;;3.25;3.25;;;;;22.95;43.38;102194.75;4942484;28;45558;-69
2023/10/07 11:15:12;;;;;;;;;4.75;4.00;;;;;22.77;43.41;102158.00;4942641;28;45446;-68
2023/10/07 11:17:51;;;;;;;;;4.50;4.50;;;;;22.91;43.39;102172.59;4937317;28;45521;-69
2023/10/07 11:20:19;;;;;;;;;5.25;3.25;;;;;22.96;43.45;102180.16;4939368;28;45474;-68
2023/10/07 11:22:45;;;;;;;;;4.25;4.25;;;;;22.98;43.72;102178.06;4941141;28;45311;-69
2023/10/07 11:25:14;;;;;;;;;6.75;4.50;;;;;22.97;43.86;102173.69;4943351;28;45558;-69
2023/10/07 11:27:43;;;;;;;;;4.50;3.50;;;;;22.95;43.58;102170.31;4954109;28;45494;-69
2023/10/07 11:30:14;;;;;;;;;4.00;3.00;;;;;22.96;43.47;102166.59;4963132;28;45314;-73
2023/10/07 11:32:40;;;;;;;;;4.67;3.33;;;;;22.97;43.15;102165.56;4971020;28;45771;-70
2023/10/07 11:35:19;;;;;;;;;5.00;5.00;;;;;22.99;43.67;102171.63;4962434;28;45549;-68
2023/10/07 11:37:49;;;;;;;;;5.75;4.75;;;;;23.01;43.68;102164.13;4963399;28;45564;-70
2023/10/07 11:40:16;;;;;;;;;4.00;3.00;;;;;22.95;44.14;102154.06;4969578;28;45791;-70
2023/10/07 11:42:41;;;;;;;;;5.50;3.25;;;;;22.96;43.75;102151.16;4958883;28;47586;-71
2023/10/07 11:45:08;;;;;;;;;5.00;5.00;;;;;22.93;44.02;102153.41;4976602;28;45500;-69
2023/10/07 11:47:37;;;;;;;;;4.25;3.25;;;;;23.00;43.97;102152.44;4973982;28;45551;-71
2023/10/07 11:50:07;;;;;;;;;5.00;3.25;;;;;22.97;43.84;102141.97;4938321;28;45345;-69
2023/10/07 11:52:33;;;;;;;;;5.75;3.25;;;;;23.04;44.32;102145.63;4938444;28;45497;-69
2023/10/07 11:54:59;;;;;;;;;4.50;3.50;;;;;23.03;44.13;102145.81;4938978;28;46780;-69
2023/10/07 11:57:26;;;;;;;;;2.50;2.00;;;;;22.95;44.54;102126.94;4921104;28;45292;-69
2023/10/07 11:59:51;;;;;;;;;3.75;3.75;;;;;22.82;43.91;102113.22;4929898;28;45529;-69
2023/10/07 12:02:16;;;;;;;;;3.25;3.25;;;;;23.08;44.06;102151.50;4947231;28;51951;-69
2023/10/07 12:04:47;;;;;;;;;3.50;3.50;;;;;23.11;44.57;102142.97;4946448;28;45518;-70
2023/10/07 12:07:16;;;;;;;;;5.00;4.00;;;;;23.01;44.10;102137.84;4942741;28;45451;-70
2023/10/07 12:09:45;;;;;;;;;5.00;4.00;;;;;23.15;44.51;102154.28;4941155;28;45254;-69
2023/10/07 12:12:15;;;;;;;;;7.67;7.33;;;;;23.03;43.99;102134.97;4957459;28;46375;-69
2023/10/07 12:14:40;;;;;;;;;4.25;4.00;;;;;23.20;44.36;102163.50;4957382;28;45550;-68
2023/10/07 12:17:07;;;;;;;;;9.25;6.25;;;;;23.22;44.23;102161.44;4957605;28;45460;-68
2023/10/07 12:19:34;;;;;;;;;5.50;4.50;;;;;23.24;44.44;102153.97;4957933;28;45584;-68